createdAt,value
2023-03-25T00:03:19.838Z,24.50
2023-03-25T00:08:25.719Z,35.30
2023-03-25T00:13:31.968Z,33.60
2023-03-25T00:18:35.676Z,27.80
2023-03-25T00:23:40.524Z,25.80
2023-03-25T00:28:43.634Z,25.60
2023-03-25T00:33:47.068Z,13.70
2023-03-25T00:38:50.186Z,15.00
2023-03-25T00:43:56.734Z,13.00
2023-03-25T00:49:01.143Z,7.80
2023-03-25T00:54:05.001Z,7.10
2023-03-25T00:59:08.320Z,8.20
2023-03-25T01:04:12.981Z,7.70
2023-03-25T01:09:16.487Z,7.60
2023-03-25T01:14:24.386Z,7.50
2023-03-25T01:19:27.916Z,8.30
2023-03-25T01:24:31.936Z,7.60
2023-03-25T01:29:35.061Z,6.90
2023-03-25T01:34:38.892Z,7.80
2023-03-25T01:39:42.188Z,7.20
2023-03-25T01:44:45.175Z,8.50
2023-03-25T01:49:48.290Z,8.80
2023-03-25T01:54:55.236Z,8.20
2023-03-25T01:59:58.593Z,8.00
2023-03-25T02:05:18.704Z,9.00
2023-03-25T02:10:22.106Z,8.00
2023-03-25T02:15:26.690Z,7.20
2023-03-25T02:21:03.764Z,7.30
2023-03-25T02:26:32.769Z,7.10
2023-03-25T02:31:54.144Z,8.80
2023-03-25T02:37:19.224Z,8.50
2023-03-25T02:42:37.479Z,8.70
2023-03-25T02:47:49.432Z,8.10
2023-03-25T02:52:59.281Z,8.00
2023-03-25T02:58:10.130Z,7.90
2023-03-25T03:03:13.351Z,7.20
2023-03-25T03:08:40.944Z,7.00
2023-03-25T03:14:11.693Z,7.30
2023-03-25T03:19:41.226Z,7.10
2023-03-25T03:25:22.132Z,7.60
2023-03-25T03:30:54.596Z,8.20
2023-03-25T03:36:13.912Z,7.40
2023-03-25T03:41:22.982Z,7.30
2023-03-25T03:46:54.742Z,6.70
2023-03-25T03:52:33.558Z,6.80
2023-03-25T03:57:57.351Z,6.30
2023-03-25T04:03:35.196Z,6.70
2023-03-25T04:08:53.774Z,8.20
2023-03-25T04:14:01.474Z,7.80
2023-03-25T04:19:06.943Z,7.50
2023-03-25T04:24:11.733Z,7.40
2023-03-25T04:29:15.010Z,7.10
2023-03-25T04:34:20.791Z,6.40
2023-03-25T04:39:24.155Z,6.50
2023-03-25T04:44:28.850Z,6.40
2023-03-25T04:49:32.039Z,7.70
2023-03-25T04:54:35.113Z,7.90
2023-03-25T04:59:38.955Z,7.50
2023-03-25T05:04:43.152Z,5.80
2023-03-25T05:09:46.285Z,6.50
2023-03-25T05:14:49.384Z,6.20
2023-03-25T05:19:53.211Z,10.50
2023-03-25T05:24:56.611Z,8.30
2023-03-25T05:30:00.772Z,8.10
2023-03-25T05:35:04.953Z,6.60
2023-03-25T05:40:15.037Z,7.00
2023-03-25T05:45:18.977Z,7.90
2023-03-25T05:50:22.800Z,9.20
2023-03-25T05:55:27.757Z,9.70
2023-03-25T06:00:31.276Z,10.80
2023-03-25T06:05:34.369Z,9.00
2023-03-25T06:10:37.580Z,8.70
2023-03-25T06:15:44.903Z,8.60
2023-03-25T06:20:48.713Z,12.50
2023-03-25T06:25:52.345Z,11.90
2023-03-25T06:30:55.972Z,13.10
2023-03-25T06:35:59.172Z,10.50
2023-03-25T06:41:02.572Z,9.10
2023-03-25T06:46:07.208Z,11.50
2023-03-25T06:51:10.623Z,12.70
2023-03-25T06:56:14.037Z,12.10
2023-03-25T07:01:17.326Z,10.40
2023-03-25T07:06:23.252Z,10.20
2023-03-25T07:11:29.684Z,9.70
2023-03-25T07:16:32.954Z,8.60
2023-03-25T07:21:36.223Z,9.70
2023-03-25T07:26:39.575Z,8.00
2023-03-25T07:31:42.985Z,7.90
2023-03-25T07:36:46.280Z,7.80
2023-03-25T07:41:49.483Z,8.10
2023-03-25T07:46:53.104Z,7.80
2023-03-25T07:51:56.300Z,9.10
2023-03-25T07:57:00.551Z,5.00
2023-03-25T08:02:03.943Z,8.60
2023-03-25T08:07:08.177Z,8.80
2023-03-25T08:12:11.525Z,8.50
2023-03-25T08:17:14.595Z,6.70
2023-03-25T08:22:17.804Z,10.40
2023-03-25T08:27:21.210Z,8.60
2023-03-25T08:32:26.606Z,7.00
2023-03-25T08:37:30.910Z,6.50
2023-03-25T08:42:34.025Z,8.50
2023-03-25T08:47:37.361Z,8.40
2023-03-25T08:52:41.460Z,8.70
2023-03-25T08:57:45.204Z,8.30
2023-03-25T09:02:48.342Z,8.50
2023-03-25T09:07:51.604Z,7.80
2023-03-25T09:12:54.927Z,7.20
2023-03-25T09:17:58.825Z,8.60
2023-03-25T09:23:02.163Z,7.50
2023-03-25T09:28:06.176Z,8.00
2023-03-25T09:33:09.607Z,7.60
2023-03-25T09:38:13.626Z,8.80
2023-03-25T09:43:58.415Z,7.80
2023-03-25T09:49:02.009Z,8.10
2023-03-25T09:54:40.446Z,7.40
2023-03-25T09:59:51.756Z,7.70
2023-03-25T10:05:23.125Z,8.30
2023-03-25T10:10:52.134Z,5.60
2023-03-25T10:16:26.966Z,6.20
2023-03-25T10:21:49.860Z,6.10
2023-03-25T10:26:56.135Z,6.00
2023-03-25T10:32:07.676Z,7.20
2023-03-25T10:37:18.226Z,5.60
2023-03-25T10:42:35.899Z,4.60
2023-03-25T10:47:41.591Z,4.80
2023-03-25T10:52:48.946Z,6.40
2023-03-25T10:57:54.802Z,5.10
2023-03-25T11:02:58.090Z,5.40
2023-03-25T11:08:18.157Z,4.60
2023-03-25T11:13:30.807Z,5.20
2023-03-25T11:18:42.255Z,5.40
2023-03-25T11:23:52.126Z,5.40
2023-03-25T11:29:02.615Z,6.00
2023-03-25T11:34:24.402Z,6.40
2023-03-25T11:39:36.568Z,5.90
2023-03-25T11:44:40.898Z,4.30
2023-03-25T11:49:49.966Z,4.90
2023-03-25T11:54:57.276Z,5.20
2023-03-25T12:00:29.231Z,4.70
2023-03-25T12:05:34.283Z,4.80
2023-03-25T12:11:17.127Z,5.60
2023-03-25T12:17:09.285Z,5.40
2023-03-25T12:22:17.649Z,6.60
2023-03-25T12:33:01.632Z,5.40
2023-03-25T12:38:53.656Z,6.00
2023-03-25T12:44:40.827Z,6.30
2023-03-25T12:50:03.367Z,5.00
2023-03-25T12:55:09.474Z,6.60
2023-03-25T13:00:47.953Z,6.80
2023-03-25T13:06:24.877Z,6.70
2023-03-25T13:11:43.741Z,5.50
2023-03-25T13:16:51.507Z,8.20
2023-03-25T13:22:11.180Z,8.90
2023-03-25T13:27:15.488Z,7.30
2023-03-25T13:32:27.197Z,7.50
2023-03-25T13:37:45.465Z,7.70
2023-03-25T13:48:20.063Z,6.60
2023-03-25T13:53:53.149Z,4.80
2023-03-25T13:59:16.793Z,6.30
2023-03-25T14:04:32.975Z,6.50
2023-03-25T14:10:10.979Z,5.60
2023-03-25T14:15:27.597Z,5.20
2023-03-25T14:20:47.766Z,4.90
2023-03-25T14:25:59.323Z,4.00
2023-03-25T14:31:14.696Z,3.60
2023-03-25T14:36:18.012Z,3.50
2023-03-25T14:42:02.092Z,3.90
2023-03-25T14:47:21.092Z,4.20
2023-03-25T14:52:45.378Z,4.50
2023-03-25T14:57:51.510Z,4.50
2023-03-25T15:03:10.939Z,4.40
2023-03-25T15:08:21.432Z,4.30
2023-03-25T15:13:53.081Z,4.30
2023-03-25T15:18:56.305Z,2.20
2023-03-25T15:24:13.893Z,4.60
2023-03-25T15:29:39.058Z,4.20
2023-03-25T15:35:16.100Z,3.90
2023-03-25T15:40:29.824Z,4.90
2023-03-25T15:45:45.018Z,4.70
2023-03-25T15:51:05.826Z,5.00
2023-03-25T15:56:25.315Z,7.20
2023-03-25T16:01:32.791Z,5.50
2023-03-25T16:06:44.133Z,4.60
2023-03-25T16:11:47.989Z,7.30
2023-03-25T16:16:55.933Z,6.00
2023-03-25T16:22:03.956Z,4.70
2023-03-25T16:27:19.541Z,4.60
2023-03-25T16:32:34.070Z,3.60
2023-03-25T16:37:38.507Z,4.00
2023-03-25T16:42:41.728Z,4.40
2023-03-25T16:47:46.866Z,3.00
2023-03-25T16:52:51.630Z,2.60
2023-03-25T16:57:55.655Z,3.40
2023-03-25T17:03:00.339Z,3.00
2023-03-25T17:08:08.686Z,4.00
2023-03-25T17:13:25.655Z,9.80
2023-03-25T17:18:32.705Z,5.90
2023-03-25T17:23:43.058Z,4.70
2023-03-25T17:28:58.469Z,4.00
2023-03-25T17:34:20.945Z,4.30
2023-03-25T17:39:31.081Z,4.20
2023-03-25T17:44:37.633Z,4.80
2023-03-25T17:49:41.352Z,3.60
2023-03-25T17:54:44.458Z,5.80
2023-03-25T17:59:48.185Z,3.90
2023-03-25T18:04:51.801Z,4.30
2023-03-25T18:09:55.262Z,5.10
2023-03-25T18:14:58.412Z,5.20
2023-03-25T18:20:01.627Z,4.50
2023-03-25T18:25:05.755Z,5.20
2023-03-25T18:30:27.610Z,5.70
2023-03-25T18:35:30.722Z,7.30
2023-03-25T18:40:36.551Z,3.60
2023-03-25T18:45:39.738Z,4.90
2023-03-25T18:50:49.765Z,5.00
2023-03-25T18:55:56.170Z,5.70
2023-03-25T19:01:02.541Z,4.60
2023-03-25T19:06:13.683Z,5.70
2023-03-25T19:11:21.511Z,6.60
2023-03-25T19:16:25.510Z,9.10
2023-03-25T19:21:28.685Z,9.50
2023-03-25T19:26:31.984Z,7.20
2023-03-25T19:31:35.224Z,8.30
2023-03-25T19:36:38.705Z,8.50
2023-03-25T19:41:43.030Z,7.20
2023-03-25T19:46:47.041Z,7.10
2023-03-25T19:51:51.405Z,7.60
2023-03-25T19:56:54.580Z,6.60
2023-03-25T20:01:58.882Z,7.10
2023-03-25T20:07:02.264Z,6.60
2023-03-25T20:12:06.387Z,7.80
2023-03-25T20:17:09.507Z,7.00
2023-03-25T20:22:24.135Z,7.10
2023-03-25T20:27:30.045Z,6.90
2023-03-25T20:32:40.614Z,7.10
2023-03-25T20:37:48.994Z,6.50
2023-03-25T20:42:52.280Z,5.90
2023-03-25T20:47:57.370Z,6.70
2023-03-25T20:53:00.431Z,4.50
2023-03-25T20:58:04.289Z,6.10
2023-03-25T21:03:07.921Z,6.10
2023-03-25T21:08:13.645Z,6.90
2023-03-25T21:13:16.754Z,6.10
2023-03-25T21:18:19.953Z,5.70
2023-03-25T21:23:32.094Z,5.10
2023-03-25T21:28:38.667Z,5.10
2023-03-25T21:33:41.792Z,4.30
2023-03-25T21:38:45.594Z,4.90
2023-03-25T21:43:49.533Z,3.60
2023-03-25T21:48:58.553Z,4.80
2023-03-25T21:54:02.404Z,4.20
2023-03-25T21:59:05.897Z,4.40
2023-03-25T22:04:09.577Z,3.50
2023-03-25T22:09:12.814Z,3.00
2023-03-25T22:14:16.133Z,4.10
2023-03-25T22:19:19.372Z,3.80
2023-03-25T22:24:22.760Z,3.70
2023-03-25T22:29:25.855Z,4.10
2023-03-25T22:34:28.906Z,5.50
2023-03-25T22:39:32.064Z,5.40
2023-03-25T22:44:35.212Z,6.50
2023-03-25T22:49:38.381Z,5.50
2023-03-25T22:54:41.815Z,6.50
2023-03-25T22:59:45.101Z,5.80
2023-03-25T23:04:48.143Z,7.10
2023-03-25T23:09:51.220Z,5.90
2023-03-25T23:14:56.381Z,5.30
2023-03-25T23:19:59.428Z,5.20
2023-03-25T23:25:04.945Z,4.20
2023-03-25T23:30:09.123Z,4.20
2023-03-25T23:35:12.297Z,3.50
2023-03-25T23:40:16.366Z,4.00
2023-03-25T23:45:20.138Z,3.60
2023-03-25T23:50:23.263Z,3.30
2023-03-25T23:55:26.358Z,2.80
